Time,TemperatureF,DewpointF,PressureIn,WindDirection,WindDirectionDegrees,WindSpeedMPH,WindSpeedGustMPH,Humidity,HourlyPrecipIn,Conditions,Clouds,dailyrainin,SolarRadiationWatts/m^2,SoftwareType,DateUTC
2013-02-26 00:01:00,39.0,31.0,-100.00,SSW,211,4.0,7.0,73,0.00,,,0.00,0.000000,,2013-02-26 08:01:00,
2013-02-26 00:21:00,38.0,31.0,-100.00,SW,216,4.0,8.0,76,0.00,,,0.00,0.000000,,2013-02-26 08:21:00,
2013-02-26 00:32:00,38.0,31.0,-100.00,SW,216,4.0,8.0,76,0.00,,,0.00,0.000000,,2013-02-26 08:32:00,
2013-02-26 00:42:00,38.0,31.0,-100.00,SW,216,4.0,8.0,76,0.00,,,0.00,0.000000,,2013-02-26 08:42:00,
2013-02-26 00:52:00,38.0,31.0,-100.00,SW,216,4.0,8.0,76,0.00,,,0.00,0.000000,,2013-02-26 08:52:00,
2013-02-26 01:01:00,38.0,31.0,-100.00,SW,216,4.0,8.0,76,0.00,,,0.00,0.000000,,2013-02-26 09:01:00,
2013-02-26 01:32:00,35.0,30.0,-100.00,SW,215,2.0,7.0,81,0.00,,,0.00,0.000000,,2013-02-26 09:32:00,
2013-02-26 01:43:00,35.0,30.0,-100.00,SW,215,2.0,7.0,81,0.00,,,0.00,0.000000,,2013-02-26 09:43:00,
2013-02-26 01:52:00,35.0,30.0,-100.00,SW,215,2.0,7.0,81,0.00,,,0.00,0.000000,,2013-02-26 09:52:00,
2013-02-26 02:01:00,35.0,30.0,-100.00,SW,215,2.0,7.0,81,0.00,,,0.00,0.000000,,2013-02-26 10:01:00,
2013-02-26 02:32:00,35.0,29.0,-100.00,SSW,208,1.0,7.0,79,-99.99,,,0.00,0.000000,,2013-02-26 10:32:00,
2013-02-26 02:42:00,35.0,29.0,-100.00,SSW,208,1.0,7.0,79,-99.99,,,0.00,0.000000,,2013-02-26 10:42:00,
2013-02-26 02:52:00,35.0,29.0,-100.00,SSW,208,1.0,7.0,79,-99.99,,,0.00,0.000000,,2013-02-26 10:52:00,
2013-02-26 03:01:00,35.0,29.0,-100.00,SSW,208,1.0,7.0,79,-99.99,,,0.00,0.000000,,2013-02-26 11:01:00,
2013-02-26 03:22:00,34.0,28.0,-100.00,SW,220,3.0,7.0,78,-99.99,,,0.00,0.000000,,2013-02-26 11:22:00,
2013-02-26 03:32:00,34.0,28.0,-100.00,SW,220,3.0,7.0,78,-99.99,,,0.00,0.000000,,2013-02-26 11:32:00,
2013-02-26 03:42:00,34.0,28.0,-100.00,SW,220,3.0,7.0,78,-99.99,,,0.00,0.000000,,2013-02-26 11:42:00,
2013-02-26 03:52:00,34.0,28.0,-100.00,SW,220,3.0,7.0,78,-99.99,,,0.00,0.000000,,2013-02-26 11:52:00,
2013-02-26 04:01:00,34.0,28.0,-100.00,SW,220,3.0,7.0,78,-99.99,,,0.00,0.000000,,2013-02-26 12:01:00,
2013-02-26 04:22:00,34.0,27.0,-100.00,SSW,211,3.0,7.0,76,0.00,,,0.00,0.000000,,2013-02-26 12:22:00,
2013-02-26 04:32:00,34.0,27.0,-100.00,SSW,211,3.0,7.0,76,0.00,,,0.00,0.000000,,2013-02-26 12:32:00,
2013-02-26 04:42:00,34.0,27.0,-100.00,SSW,211,3.0,7.0,76,0.00,,,0.00,0.000000,,2013-02-26 12:42:00,
2013-02-26 04:53:00,34.0,27.0,-100.00,SSW,211,3.0,7.0,76,0.00,,,0.00,0.000000,,2013-02-26 12:53:00,
2013-02-26 05:01:00,34.0,27.0,-100.00,SSW,211,3.0,7.0,76,0.00,,,0.00,0.000000,,2013-02-26 13:01:00,
2013-02-26 05:22:00,33.0,26.0,-100.00,SSW,207,4.0,7.0,76,0.00,,,0.00,0.000000,,2013-02-26 13:22:00,
2013-02-26 05:32:00,33.0,26.0,-100.00,SSW,207,4.0,7.0,76,0.00,,,0.00,0.000000,,2013-02-26 13:32:00,
2013-02-26 05:42:00,33.0,26.0,-100.00,SSW,207,4.0,7.0,76,0.00,,,0.00,0.000000,,2013-02-26 13:42:00,
2013-02-26 05:52:00,33.0,26.0,-100.00,SSW,207,4.0,7.0,76,0.00,,,0.00,0.000000,,2013-02-26 13:52:00,
2013-02-26 06:01:00,33.0,26.0,-100.00,SSW,207,4.0,7.0,76,0.00,,,0.00,0.000000,,2013-02-26 14:01:00,
2013-02-26 06:32:00,33.0,26.0,-100.00,SSW,208,3.0,8.0,76,0.00,,,0.00,0.000000,,2013-02-26 14:32:00,
2013-02-26 06:42:00,33.0,26.0,-100.00,SSW,208,3.0,8.0,76,0.00,,,0.00,0.000000,,2013-02-26 14:42:00,
2013-02-26 06:52:00,33.0,26.0,-100.00,SSW,208,3.0,8.0,76,0.00,,,0.00,0.000000,,2013-02-26 14:52:00,
2013-02-26 07:01:00,33.0,26.0,-100.00,SSW,208,3.0,8.0,76,0.00,,,0.00,0.000000,,2013-02-26 15:01:00,
2013-02-26 07:32:00,31.0,26.0,-100.00,SSW,213,3.0,6.0,81,0.00,,,0.00,4.000000,,2013-02-26 15:32:00,
2013-02-26 07:42:00,31.0,26.0,-100.00,SSW,213,3.0,6.0,81,0.00,,,0.00,4.000000,,2013-02-26 15:42:00,
2013-02-26 07:52:00,31.0,26.0,-100.00,SSW,213,3.0,6.0,81,0.00,,,0.00,4.000000,,2013-02-26 15:52:00,
2013-02-26 08:01:00,31.0,26.0,-100.00,SSW,213,3.0,6.0,81,0.00,,,0.00,4.000000,,2013-02-26 16:01:00,
2013-02-26 08:32:00,37.0,27.0,-100.00,SSW,193,2.0,7.0,68,0.00,,,0.00,140.000000,,2013-02-26 16:32:00,
2013-02-26 08:42:00,37.0,27.0,-100.00,SSW,193,2.0,7.0,68,0.00,,,0.00,140.000000,,2013-02-26 16:42:00,
2013-02-26 08:52:00,37.0,27.0,-100.00,SSW,193,2.0,7.0,68,0.00,,,0.00,140.000000,,2013-02-26 16:52:00,
2013-02-26 09:01:00,37.0,27.0,-100.00,SSW,193,2.0,7.0,68,0.00,,,0.00,140.000000,,2013-02-26 17:01:00,
2013-02-26 09:32:00,50.0,31.0,-100.00,SSE,151,1.0,6.0,47,-99.99,,,0.00,350.000000,,2013-02-26 17:32:00,
2013-02-26 09:42:00,50.0,31.0,-100.00,SSE,151,1.0,6.0,47,-99.99,,,0.00,350.000000,,2013-02-26 17:42:00,
2013-02-26 09:52:00,50.0,31.0,-100.00,SSE,151,1.0,6.0,47,-99.99,,,0.00,350.000000,,2013-02-26 17:52:00,
2013-02-26 10:01:00,50.0,31.0,-100.00,SSE,151,1.0,6.0,47,-99.99,,,0.00,350.000000,,2013-02-26 18:01:00,
2013-02-26 10:32:00,58.0,33.0,-100.00,SW,226,1.0,6.0,38,0.00,,,0.00,537.000000,,2013-02-26 18:32:00,
2013-02-26 10:42:00,58.0,33.0,-100.00,SW,226,1.0,6.0,38,0.00,,,0.00,537.000000,,2013-02-26 18:42:00,
2013-02-26 10:52:00,58.0,33.0,-100.00,SW,226,1.0,6.0,38,0.00,,,0.00,537.000000,,2013-02-26 18:52:00,
2013-02-26 11:01:00,58.0,33.0,-100.00,SW,226,1.0,6.0,38,0.00,,,0.00,537.000000,,2013-02-26 19:01:00,
2013-02-26 11:32:00,65.0,19.0,-100.00,ENE,68,6.0,11.0,17,0.00,,,0.00,682.000000,,2013-02-26 19:32:00,
2013-02-26 11:42:00,65.0,19.0,-100.00,ENE,68,6.0,11.0,17,0.00,,,0.00,682.000000,,2013-02-26 19:42:00,
2013-02-26 11:52:00,65.0,19.0,-100.00,ENE,68,6.0,11.0,17,0.00,,,0.00,682.000000,,2013-02-26 19:52:00,
2013-02-26 12:01:00,65.0,19.0,-100.00,ENE,68,6.0,11.0,17,0.00,,,0.00,682.000000,,2013-02-26 20:01:00,
2013-02-26 13:31:00,69.0,14.0,-100.00,East,99,7.0,15.0,12,-99.99,,,0.00,763.000000,,2013-02-26 21:31:00,
2013-02-26 13:41:00,69.0,14.0,-100.00,East,99,7.0,15.0,12,-99.99,,,0.00,763.000000,,2013-02-26 21:41:00,
2013-02-26 13:51:00,69.0,14.0,-100.00,East,99,7.0,15.0,12,-99.99,,,0.00,763.000000,,2013-02-26 21:51:00,
2013-02-26 14:01:00,69.0,14.0,-100.00,East,99,7.0,15.0,12,-99.99,,,0.00,763.000000,,2013-02-26 22:01:00,
2013-02-26 14:32:00,70.0,13.0,-100.00,East,96,9.0,15.0,11,0.00,,,0.00,740.000000,,2013-02-26 22:32:00,
2013-02-26 14:42:00,70.0,13.0,-100.00,East,96,9.0,15.0,11,0.00,,,0.00,740.000000,,2013-02-26 22:42:00,
2013-02-26 14:52:00,70.0,13.0,-100.00,East,96,9.0,15.0,11,0.00,,,0.00,740.000000,,2013-02-26 22:52:00,
2013-02-26 15:01:00,70.0,13.0,-100.00,East,96,9.0,15.0,11,0.00,,,0.00,740.000000,,2013-02-26 23:01:00,
2013-02-26 15:32:00,71.0,12.0,-100.00,ENE,69,6.0,15.0,10,0.00,,,0.00,631.000000,,2013-02-26 23:32:00,
2013-02-26 15:42:00,71.0,12.0,-100.00,ENE,69,6.0,15.0,10,0.00,,,0.00,631.000000,,2013-02-26 23:42:00,
2013-02-26 15:52:00,71.0,12.0,-100.00,ENE,69,6.0,15.0,10,0.00,,,0.00,631.000000,,2013-02-26 23:52:00,
2013-02-26 16:01:00,71.0,12.0,-100.00,ENE,69,6.0,15.0,10,0.00,,,0.00,631.000000,,2013-02-27 00:01:00,
2013-02-26 16:22:00,71.0,16.0,-100.00,SE,130,4.0,13.0,12,0.00,,,0.00,467.000000,,2013-02-27 00:22:00,
2013-02-26 16:32:00,71.0,16.0,-100.00,SE,130,4.0,13.0,12,0.00,,,0.00,467.000000,,2013-02-27 00:32:00,
2013-02-26 16:42:00,71.0,16.0,-100.00,SE,130,4.0,13.0,12,0.00,,,0.00,467.000000,,2013-02-27 00:42:00,
2013-02-26 16:52:00,71.0,16.0,-100.00,SE,130,4.0,13.0,12,0.00,,,0.00,467.000000,,2013-02-27 00:52:00,
2013-02-26 17:01:00,71.0,16.0,-100.00,SE,130,4.0,13.0,12,0.00,,,0.00,467.000000,,2013-02-27 01:01:00,
2013-02-26 17:22:00,68.0,15.0,-100.00,SE,128,4.0,9.0,13,0.00,,,0.00,236.000000,,2013-02-27 01:22:00,
2013-02-26 17:32:00,68.0,15.0,-100.00,SE,128,4.0,9.0,13,0.00,,,0.00,236.000000,,2013-02-27 01:32:00,
2013-02-26 17:42:00,68.0,15.0,-100.00,SE,128,4.0,9.0,13,0.00,,,0.00,236.000000,,2013-02-27 01:42:00,
2013-02-26 17:52:00,68.0,15.0,-100.00,SE,128,4.0,9.0,13,0.00,,,0.00,236.000000,,2013-02-27 01:52:00,
2013-02-26 18:01:00,68.0,15.0,-100.00,SE,128,4.0,9.0,13,0.00,,,0.00,236.000000,,2013-02-27 02:01:00,
2013-02-26 18:24:00,59.0,23.0,-100.00,East,96,3.0,8.0,25,0.00,,,0.00,13.000000,,2013-02-27 02:24:00,
2013-02-26 18:32:00,59.0,23.0,-100.00,East,96,3.0,8.0,25,0.00,,,0.00,13.000000,,2013-02-27 02:32:00,
2013-02-26 18:42:00,59.0,23.0,-100.00,East,96,3.0,8.0,25,0.00,,,0.00,13.000000,,2013-02-27 02:42:00,
2013-02-26 18:52:00,59.0,23.0,-100.00,East,96,3.0,8.0,25,0.00,,,0.00,13.000000,,2013-02-27 02:52:00,
2013-02-26 19:01:00,59.0,23.0,-100.00,East,96,3.0,8.0,25,0.00,,,0.00,13.000000,,2013-02-27 03:01:00,
2013-02-26 19:32:00,51.0,27.0,-100.00,East,91,2.0,5.0,39,0.00,,,0.00,0.000000,,2013-02-27 03:32:00,
2013-02-26 19:42:00,51.0,27.0,-100.00,East,91,2.0,5.0,39,0.00,,,0.00,0.000000,,2013-02-27 03:42:00,
2013-02-26 19:52:00,51.0,27.0,-100.00,East,91,2.0,5.0,39,0.00,,,0.00,0.000000,,2013-02-27 03:52:00,
2013-02-26 20:01:00,51.0,27.0,-100.00,East,91,2.0,5.0,39,0.00,,,0.00,0.000000,,2013-02-27 04:01:00,
2013-02-26 20:32:00,48.0,28.0,-100.00,SW,235,1.0,3.0,45,0.00,,,0.00,0.000000,,2013-02-27 04:32:00,
2013-02-26 20:42:00,48.0,28.0,-100.00,SW,235,1.0,3.0,45,0.00,,,0.00,0.000000,,2013-02-27 04:42:00,
2013-02-26 20:52:00,48.0,28.0,-100.00,SW,235,1.0,3.0,45,0.00,,,0.00,0.000000,,2013-02-27 04:52:00,
2013-02-26 21:01:00,48.0,28.0,-100.00,SW,235,1.0,3.0,45,0.00,,,0.00,0.000000,,2013-02-27 05:01:00,
2013-02-26 21:32:00,44.0,29.0,-100.00,SW,232,2.0,3.0,55,0.00,,,0.00,0.000000,,2013-02-27 05:32:00,
2013-02-26 21:42:00,44.0,29.0,-100.00,SW,232,2.0,3.0,55,0.00,,,0.00,0.000000,,2013-02-27 05:42:00,
2013-02-26 21:52:00,44.0,29.0,-100.00,SW,232,2.0,3.0,55,0.00,,,0.00,0.000000,,2013-02-27 05:52:00,
2013-02-26 22:02:00,44.0,29.0,-100.00,SW,232,2.0,3.0,55,0.00,,,0.00,0.000000,,2013-02-27 06:02:00,
2013-02-26 22:33:00,41.0,29.0,-100.00,SW,232,2.0,3.0,63,-99.99,,,0.00,0.000000,,2013-02-27 06:33:00,
2013-02-26 22:42:00,41.0,29.0,-100.00,SW,232,2.0,3.0,63,-99.99,,,0.00,0.000000,,2013-02-27 06:42:00,
2013-02-26 22:52:00,41.0,29.0,-100.00,SW,232,2.0,3.0,63,-99.99,,,0.00,0.000000,,2013-02-27 06:52:00,
2013-02-26 23:01:00,41.0,29.0,-100.00,SW,232,2.0,3.0,63,-99.99,,,0.00,0.000000,,2013-02-27 07:01:00,
2013-02-26 23:22:00,41.0,29.0,-100.00,SW,235,1.0,6.0,63,-99.99,,,0.00,0.000000,,2013-02-27 07:22:00,
2013-02-26 23:32:00,41.0,29.0,-100.00,SW,235,1.0,6.0,63,-99.99,,,0.00,0.000000,,2013-02-27 07:32:00,
2013-02-26 23:42:00,41.0,29.0,-100.00,SW,235,1.0,6.0,63,-99.99,,,0.00,0.000000,,2013-02-27 07:42:00,
2013-02-26 23:52:00,41.0,29.0,-100.00,SW,235,1.0,6.0,63,-99.99,,,0.00,0.000000,,2013-02-27 07:52:00,